Time;durP1;ratioP1;P1;durP2;ratioP2;P2;SDS_P1;SDS_P2;PMS_P1;PMS_P2;Temp;Humidity;BMP_temperature;BMP_pressure;BME280_temperature;BME280_humidity;BME280_pressure;Samples;Min_cycle;Max_cycle;Signal;HPM_P1;HPM_P2
2022/04/05 00:02:24;;;;;;;19.40;10.95;;;0.50;97.80;;;;;;5073098;28;20021;-93
2022/04/05 00:04:50;;;;;;;16.90;10.52;;;0.50;97.70;;;;;;5073172;28;20486;-93
2022/04/05 00:07:16;;;;;;;15.65;9.68;;;0.50;97.70;;;;;;5073073;28;20032;-94
2022/04/05 00:09:41;;;;;;;16.38;9.95;;;0.50;97.70;;;;;;5072969;28;20532;-94
2022/04/05 00:12:08;;;;;;;19.20;11.85;;;0.60;97.80;;;;;;5072989;28;20024;-94
2022/04/05 00:14:34;;;;;;;17.35;11.23;;;0.50;97.70;;;;;;5074196;28;20025;-93
2022/04/05 00:16:59;;;;;;;17.05;11.07;;;0.60;97.70;;;;;;5073330;28;20383;-93
2022/04/05 00:19:25;;;;;;;16.65;11.18;;;0.60;97.70;;;;;;5074125;28;20027;-94
2022/04/05 00:21:51;;;;;;;17.92;11.05;;;0.60;97.60;;;;;;5073187;28;20017;-93
2022/04/05 00:24:17;;;;;;;17.58;11.02;;;0.50;97.70;;;;;;5073053;28;20467;-94
2022/04/05 00:26:42;;;;;;;18.70;11.38;;;0.50;97.80;;;;;;5073994;28;20104;-93
2022/04/05 00:29:08;;;;;;;16.38;10.10;;;0.50;97.90;;;;;;5073080;28;20387;-93
2022/04/05 00:31:34;;;;;;;18.25;10.48;;;0.40;98.00;;;;;;5074017;28;20052;-93
2022/04/05 00:34:00;;;;;;;15.35;10.32;;;0.40;98.10;;;;;;5072751;28;20025;-93
2022/04/05 00:36:25;;;;;;;18.50;10.40;;;0.30;98.30;;;;;;5072997;28;20038;-94
2022/04/05 00:38:51;;;;;;;19.40;11.23;;;0.30;98.20;;;;;;5074054;28;20032;-93
2022/04/05 00:41:17;;;;;;;18.58;10.90;;;0.30;98.30;;;;;;5073625;28;20027;-94
2022/04/05 00:43:42;;;;;;;16.65;11.45;;;0.20;98.50;;;;;;5076429;28;20161;-93
2022/04/05 00:46:08;;;;;;;17.20;11.20;;;0.10;98.50;;;;;;5077772;28;20025;-94
2022/04/05 00:48:52;;;;;;;15.93;11.35;;;0.10;98.70;;;;;;5076334;28;20480;-94
2022/04/05 00:51:19;;;;;;;17.85;11.07;;;0.00;98.80;;;;;;5076614;28;20020;-94
2022/04/05 00:53:47;;;;;;;19.15;11.27;;;0.00;99.00;;;;;;5076195;28;20025;-93
2022/04/05 00:56:17;;;;;;;16.85;10.98;;;0.00;99.00;;;;;;5075878;28;20495;-94
2022/04/05 00:58:47;;;;;;;14.57;10.10;;;-0.10;99.00;;;;;;5076374;28;20036;-92
2022/04/05 01:01:16;;;;;;;17.67;11.88;;;-0.10;99.30;;;;;;5076233;28;20025;-93
2022/04/05 01:03:48;;;;;;;18.48;11.15;;;-0.10;99.30;;;;;;5076284;28;20389;-95
2022/04/05 01:06:19;;;;;;;16.40;10.50;;;-0.10;99.30;;;;;;5076207;28;20027;-93
2022/04/05 01:08:46;;;;;;;18.80;12.25;;;-0.10;99.40;;;;;;5076161;28;20032;-94
2022/04/05 01:11:13;;;;;;;19.73;13.13;;;-0.20;99.50;;;;;;5076031;28;20048;-94
2022/04/05 01:13:38;;;;;;;18.13;11.82;;;-0.20;99.60;;;;;;5076082;28;20024;-94
2022/04/05 01:16:04;;;;;;;21.95;13.00;;;-0.30;99.80;;;;;;5076034;28;20093;-94
2022/04/05 01:18:30;;;;;;;20.02;11.57;;;-0.30;99.90;;;;;;5075606;28;20020;-93
2022/04/05 01:20:56;;;;;;;15.75;10.80;;;-0.30;99.90;;;;;;5075870;28;20470;-93
2022/04/05 01:23:23;;;;;;;19.40;11.18;;;-0.30;99.90;;;;;;5077041;28;20039;-93
2022/04/05 01:25:49;;;;;;;16.08;10.23;;;-0.30;99.90;;;;;;5075970;28;20025;-93
2022/04/05 01:28:15;;;;;;;14.00;9.95;;;-0.30;99.90;;;;;;5076888;28;20025;-94
2022/04/05 01:30:41;;;;;;;15.43;10.07;;;-0.30;99.90;;;;;;5075746;28;20028;-93
2022/04/05 01:33:07;;;;;;;15.13;9.95;;;-0.30;99.90;;;;;;5076743;28;20482;-92
2022/04/05 01:35:37;;;;;;;16.60;10.52;;;-0.30;99.90;;;;;;5075674;28;20056;-94
2022/04/05 01:38:06;;;;;;;15.82;10.38;;;-0.30;99.90;;;;;;5075759;28;20032;-91
2022/04/05 01:40:33;;;;;;;13.90;9.77;;;-0.30;99.90;;;;;;5075521;28;20046;-93
2022/04/05 01:42:59;;;;;;;16.67;10.85;;;-0.30;99.90;;;;;;5075529;28;20113;-94
2022/04/05 01:45:24;;;;;;;15.13;9.48;;;-0.20;99.90;;;;;;5075388;28;20024;-90
2022/04/05 01:47:50;;;;;;;16.08;10.48;;;-0.30;99.90;;;;;;5075448;28;20025;-93
2022/04/05 01:50:16;;;;;;;15.80;9.75;;;-0.20;99.90;;;;;;5075236;28;20035;-92
2022/04/05 01:52:42;;;;;;;14.98;10.25;;;-0.20;99.90;;;;;;5076321;28;20025;-92
2022/04/05 01:55:08;;;;;;;15.40;10.20;;;-0.10;99.90;;;;;;5076070;28;20127;-93
2022/04/05 01:57:35;;;;;;;13.63;9.90;;;-0.10;99.90;;;;;;5074800;28;20031;-94
2022/04/05 02:00:02;;;;;;;16.75;10.88;;;-0.10;99.90;;;;;;5076176;28;20028;-93
2022/04/05 02:02:28;;;;;;;16.83;10.48;;;0.00;99.90;;;;;;5075061;28;20017;-93
2022/04/05 02:04:54;;;;;;;17.30;11.55;;;-0.10;99.90;;;;;;5075915;28;20031;-93
2022/04/05 02:07:21;;;;;;;18.30;11.73;;;-0.10;99.90;;;;;;5075346;28;20370;-92
2022/04/05 02:09:49;;;;;;;19.92;12.38;;;-0.20;99.90;;;;;;5074789;28;20028;-92
2022/04/05 02:12:15;;;;;;;20.05;12.68;;;-0.10;99.90;;;;;;5074891;28;20085;-93
2022/04/05 02:14:41;;;;;;;20.92;12.05;;;-0.20;99.90;;;;;;5074694;28;20025;-93
2022/04/05 02:17:08;;;;;;;18.15;11.93;;;-0.20;99.90;;;;;;5074817;28;20110;-91
2022/04/05 02:19:34;;;;;;;18.95;11.57;;;-0.30;99.90;;;;;;5074778;28;20166;-93
2022/04/05 02:22:00;;;;;;;17.75;11.30;;;-0.20;99.90;;;;;;5075778;28;20028;-93
2022/04/05 02:24:26;;;;;;;14.85;10.00;;;-0.30;99.90;;;;;;5075766;28;20028;-91
2022/04/05 02:26:52;;;;;;;14.57;10.82;;;-0.30;99.90;;;;;;5074589;28;20386;-93
2022/04/05 02:29:17;;;;;;;16.83;10.55;;;-0.30;99.90;;;;;;5075631;28;20467;-92
2022/04/05 02:31:43;;;;;;;18.20;11.80;;;-0.30;99.90;;;;;;5075765;28;20025;-94
2022/04/05 02:34:09;;;;;;;16.05;10.23;;;-0.40;99.90;;;;;;5074275;28;20024;-93
2022/04/05 02:36:35;;;;;;;16.05;10.65;;;-0.40;99.90;;;;;;5074336;28;20020;-93
2022/04/05 02:39:02;;;;;;;19.80;11.88;;;-0.40;99.90;;;;;;5074521;28;20078;-93
2022/04/05 02:41:27;;;;;;;17.55;11.20;;;-0.40;99.90;;;;;;5075545;28;20033;-93
2022/04/05 02:43:53;;;;;;;16.27;10.90;;;-0.50;99.90;;;;;;5074419;28;20112;-94
2022/04/05 02:46:19;;;;;;;21.27;12.50;;;-0.50;99.90;;;;;;5074122;28;20031;-93
2022/04/05 02:48:46;;;;;;;19.10;12.43;;;-0.40;99.90;;;;;;5074204;28;20021;-94
2022/04/05 02:51:15;;;;;;;23.15;12.60;;;-0.40;99.90;;;;;;5074212;28;20032;-95
2022/04/05 02:53:42;;;;;;;19.08;11.90;;;-0.40;99.90;;;;;;5074079;28;20113;-94
2022/04/05 02:56:08;;;;;;;25.95;14.68;;;-0.40;99.90;;;;;;5073876;28;20509;-93
2022/04/05 02:58:37;;;;;;;22.65;14.73;;;-0.40;99.90;;;;;;5074154;28;20451;-92
2022/04/05 03:01:04;;;;;;;27.17;14.48;;;-0.30;99.90;;;;;;5073789;28;20021;-93
2022/04/05 03:03:30;;;;;;;23.20;14.90;;;-0.30;99.90;;;;;;5073655;28;20046;-95
2022/04/05 03:05:56;;;;;;;20.70;12.82;;;-0.30;99.90;;;;;;5073676;28;20039;-94
2022/04/05 03:08:22;;;;;;;18.55;12.35;;;-0.20;99.90;;;;;;5073658;28;20029;-93
2022/04/05 03:10:48;;;;;;;19.98;12.55;;;-0.30;99.90;;;;;;5073858;28;20024;-94
2022/04/05 03:13:14;;;;;;;23.02;13.80;;;-0.20;99.90;;;;;;5073924;28;20036;-94
2022/04/05 03:15:40;;;;;;;21.75;13.48;;;-0.30;99.90;;;;;;5074684;28;20028;-93
2022/04/05 03:18:06;;;;;;;20.17;13.50;;;-0.30;99.90;;;;;;5073441;28;20090;-94
2022/04/05 03:20:32;;;;;;;18.52;12.05;;;-0.30;99.90;;;;;;5073548;28;20352;-93
2022/04/05 03:23:00;;;;;;;18.77;11.95;;;-0.20;99.90;;;;;;5073726;28;20028;-94
2022/04/05 03:25:26;;;;;;;18.67;11.85;;;-0.30;99.90;;;;;;5073545;28;20142;-94
2022/04/05 03:27:52;;;;;;;20.80;12.50;;;-0.20;99.90;;;;;;5073644;28;20029;-94
2022/04/05 03:30:20;;;;;;;22.02;13.15;;;-0.30;99.90;;;;;;5074732;28;20033;-93
2022/04/05 03:32:46;;;;;;;26.85;14.07;;;-0.20;99.90;;;;;;5073578;28;20031;-94
2022/04/05 03:35:12;;;;;;;25.85;14.73;;;-0.20;99.90;;;;;;5074867;28;20031;-94
2022/04/05 03:37:38;;;;;;;21.73;14.20;;;-0.20;99.90;;;;;;5074191;28;20025;-94
2022/04/05 03:40:05;;;;;;;19.63;12.48;;;-0.20;99.90;;;;;;5073355;28;20533;-94
2022/04/05 03:42:31;;;;;;;21.95;13.00;;;-0.20;99.90;;;;;;5073463;28;20024;-94
2022/04/05 03:44:56;;;;;;;21.95;12.27;;;-0.20;99.90;;;;;;5072893;28;20020;-93
2022/04/05 03:47:23;;;;;;;21.45;13.68;;;-0.20;99.90;;;;;;5073357;28;20029;-94
2022/04/05 03:49:49;;;;;;;22.73;13.60;;;-0.10;99.90;;;;;;5073057;28;20051;-94
2022/04/05 03:52:15;;;;;;;23.45;13.75;;;-0.10;99.90;;;;;;5074360;28;20035;-94
2022/04/05 03:54:40;;;;;;;19.88;12.95;;;0.00;99.90;;;;;;5072952;28;20048;-94
2022/04/05 03:57:06;;;;;;;21.85;13.07;;;0.10;99.90;;;;;;5074515;28;20023;-93
2022/04/05 03:59:32;;;;;;;18.10;11.48;;;0.20;99.90;;;;;;5072973;28;20020;-94
2022/04/05 04:01:58;;;;;;;20.02;12.65;;;0.30;99.90;;;;;;5072946;28;20024;-93
2022/04/05 04:04:23;;;;;;;20.67;13.20;;;0.40;99.90;;;;;;5073113;28;20134;-94
2022/04/05 04:06:49;;;;;;;20.15;13.27;;;0.60;99.90;;;;;;5077505;28;20056;-91
2022/04/05 04:09:14;;;;;;;24.25;13.45;;;0.70;99.90;;;;;;5074286;28;20017;-94
2022/04/05 04:11:40;;;;;;;20.73;13.60;;;0.80;99.90;;;;;;5073199;28;20020;-94
2022/04/05 04:14:07;;;;;;;17.75;12.32;;;0.90;99.90;;;;;;5073051;28;20025;-91
2022/04/05 04:16:33;;;;;;;22.25;13.35;;;0.90;99.90;;;;;;5074335;28;20074;-92
2022/04/05 04:18:59;;;;;;;21.45;13.50;;;1.10;99.90;;;;;;5077044;28;20016;-91
2022/04/05 04:21:25;;;;;;;23.25;13.93;;;1.10;99.90;;;;;;5077023;28;20021;-91
2022/04/05 04:23:51;;;;;;;19.95;13.50;;;1.10;99.90;;;;;;5076827;28;20111;-92
2022/04/05 04:26:16;;;;;;;19.13;12.93;;;1.10;99.90;;;;;;5076959;28;20118;-90
2022/04/05 04:28:42;;;;;;;24.08;15.27;;;1.20;99.90;;;;;;5076627;28;20021;-90
2022/04/05 04:31:08;;;;;;;25.95;16.58;;;1.40;99.90;;;;;;5076821;28;20025;-91
2022/04/05 04:33:33;;;;;;;25.80;16.17;;;1.50;99.90;;;;;;5084276;28;20088;-96
2022/04/05 04:36:00;;;;;;;22.88;13.70;;;1.60;99.90;;;;;;5079424;28;20028;-88
2022/04/05 04:38:25;;;;;;;23.60;14.68;;;1.70;99.90;;;;;;5076129;28;20468;-88
2022/04/05 04:40:52;;;;;;;19.73;12.95;;;1.80;99.90;;;;;;5077111;28;20078;-88
2022/04/05 04:43:18;;;;;;;19.15;12.95;;;1.80;99.90;;;;;;5077354;28;20028;-88
2022/04/05 04:45:45;;;;;;;22.77;13.45;;;1.90;99.90;;;;;;5076245;28;20032;-88
2022/04/05 04:48:11;;;;;;;19.05;12.88;;;2.00;99.90;;;;;;5077303;28;20036;-88
2022/04/05 04:50:37;;;;;;;21.35;13.65;;;2.10;99.90;;;;;;5077145;28;20071;-88
2022/04/05 04:53:02;;;;;;;18.77;13.63;;;2.20;99.90;;;;;;5075799;28;20032;-88
2022/04/05 04:55:28;;;;;;;22.48;12.52;;;2.20;99.90;;;;;;5076583;28;20048;-88
2022/04/05 04:57:54;;;;;;;21.98;13.15;;;2.30;99.90;;;;;;5075515;28;20025;-88
2022/04/05 05:00:20;;;;;;;20.92;12.90;;;2.40;99.90;;;;;;5075804;28;20116;-87
2022/04/05 05:02:47;;;;;;;23.45;13.52;;;2.60;99.90;;;;;;5075390;28;20111;-89
2022/04/05 05:05:19;;;;;;;21.17;13.00;;;2.90;99.90;;;;;;5075845;28;20495;-88
2022/04/05 05:07:49;;;;;;;20.20;12.80;;;3.10;99.90;;;;;;5076699;28;20021;-88
2022/04/05 05:10:16;;;;;;;24.52;14.00;;;3.30;99.90;;;;;;5076517;28;20028;-88
2022/04/05 05:12:42;;;;;;;21.27;13.02;;;3.50;99.80;;;;;;5076622;28;20041;-88
2022/04/05 05:15:09;;;;;;;20.60;13.20;;;3.70;99.30;;;;;;5075659;28;20021;-88
2022/04/05 05:17:35;;;;;;;25.80;14.65;;;3.90;98.90;;;;;;5075603;28;20566;-89
2022/04/05 05:20:02;;;;;;;20.90;12.93;;;4.00;98.40;;;;;;5075594;28;20120;-89
2022/04/05 05:22:28;;;;;;;20.02;12.95;;;4.10;98.50;;;;;;5075105;28;20025;-89
2022/04/05 05:24:53;;;;;;;21.10;12.65;;;4.20;98.60;;;;;;5075688;28;20055;-89
2022/04/05 05:27:19;;;;;;;17.50;12.13;;;4.40;98.10;;;;;;5074865;28;20059;-89
2022/04/05 05:29:45;;;;;;;18.83;11.20;;;4.50;97.50;;;;;;5075355;28;20118;-89
2022/04/05 05:32:10;;;;;;;16.17;10.88;;;4.50;97.00;;;;;;5075300;28;20025;-89
2022/04/05 05:34:36;;;;;;;17.55;10.73;;;4.60;96.90;;;;;;5076300;28;20021;-88
2022/04/05 05:37:03;;;;;;;18.83;10.93;;;4.70;96.10;;;;;;5075205;28;20021;-88
2022/04/05 05:39:28;;;;;;;17.92;12.35;;;4.70;96.20;;;;;;5075902;28;20016;-89
2022/04/05 05:41:54;;;;;;;17.25;10.98;;;4.80;95.70;;;;;;5074979;28;20024;-88
2022/04/05 05:44:20;;;;;;;19.67;12.13;;;4.90;95.60;;;;;;5074985;28;20074;-89
2022/04/05 05:46:46;;;;;;;21.73;12.80;;;5.00;94.40;;;;;;5076420;28;20028;-89
2022/04/05 05:49:12;;;;;;;18.38;11.40;;;5.20;93.80;;;;;;5076086;28;20021;-88
2022/04/05 05:51:38;;;;;;;19.17;12.13;;;5.20;94.20;;;;;;5076078;28;20091;-89
2022/04/05 05:54:05;;;;;;;19.35;12.90;;;5.40;94.20;;;;;;5075106;28;20238;-89
2022/04/05 05:56:31;;;;;;;16.67;11.07;;;5.60;93.80;;;;;;5074681;28;20024;-88
2022/04/05 05:58:56;;;;;;;15.80;10.63;;;5.70;93.60;;;;;;5075117;28;20025;-87
2022/04/05 06:01:23;;;;;;;20.13;9.98;;;6.00;93.30;;;;;;5074621;28;20115;-90
2022/04/05 06:03:49;;;;;;;14.93;9.32;;;6.10;93.20;;;;;;5074517;28;20455;-89
2022/04/05 06:06:14;;;;;;;13.13;9.88;;;6.10;93.50;;;;;;5074500;28;20021;-89
2022/04/05 06:08:40;;;;;;;17.30;9.73;;;6.20;93.50;;;;;;5074873;28;20031;-88
2022/04/05 06:11:07;;;;;;;16.50;9.68;;;6.40;92.90;;;;;;5074506;28;20036;-89
2022/04/05 06:13:33;;;;;;;17.30;10.40;;;6.40;93.00;;;;;;5074392;28;20495;-88
2022/04/05 06:15:59;;;;;;;13.32;10.13;;;6.40;92.50;;;;;;5074528;28;20119;-90
2022/04/05 06:18:25;;;;;;;17.15;11.43;;;6.40;92.60;;;;;;5075883;28;20052;-88
2022/04/05 06:20:50;;;;;;;16.48;10.02;;;6.40;92.60;;;;;;5075276;28;20028;-89
2022/04/05 06:23:16;;;;;;;15.07;10.57;;;6.40;92.90;;;;;;5074180;28;20031;-88
2022/04/05 06:25:42;;;;;;;17.20;11.73;;;6.40;92.90;;;;;;5074152;28;20031;-88
2022/04/05 06:28:09;;;;;;;16.50;11.18;;;6.40;93.70;;;;;;5074437;28;20032;-88
2022/04/05 06:30:37;;;;;;;19.75;12.20;;;6.50;94.10;;;;;;5073853;28;20029;-89
2022/04/05 06:33:14;;;;;;;14.57;10.63;;;6.70;93.90;;;;;;5073958;28;20501;-89
2022/04/05 06:35:45;;;;;;;16.38;12.07;;;6.80;93.10;;;;;;5073961;28;20162;-89
2022/04/05 06:38:12;;;;;;;19.27;13.10;;;6.80;92.50;;;;;;5073794;28;20021;-87
2022/04/05 06:40:38;;;;;;;19.52;12.80;;;6.50;93.00;;;;;;5073619;28;20467;-88
2022/04/05 06:43:04;;;;;;;16.92;12.32;;;6.40;93.90;;;;;;5074172;28;20032;-89
2022/04/05 06:45:30;;;;;;;21.52;13.93;;;6.30;94.20;;;;;;5074034;28;20020;-88
2022/04/05 06:47:56;;;;;;;18.63;12.52;;;6.30;94.70;;;;;;5073634;28;20425;-88
2022/04/05 06:50:24;;;;;;;18.00;12.40;;;6.40;95.30;;;;;;5073890;28;20035;-86
2022/04/05 06:52:52;;;;;;;14.73;11.23;;;6.70;95.10;;;;;;5074022;28;20021;-88
2022/04/05 06:55:18;;;;;;;17.80;11.95;;;7.00;94.20;;;;;;5073392;28;20048;-88
2022/04/05 06:57:43;;;;;;;17.90;11.77;;;7.10;94.30;;;;;;5073582;28;20021;-88
2022/04/05 07:00:11;;;;;;;15.55;10.75;;;7.30;94.50;;;;;;5073692;28;20055;-87
2022/04/05 07:02:38;;;;;;;17.90;11.88;;;7.30;94.30;;;;;;5074526;28;20103;-89
2022/04/05 07:05:04;;;;;;;15.55;11.57;;;7.40;93.70;;;;;;5073715;28;20020;-88
2022/04/05 07:07:32;;;;;;;15.32;11.45;;;7.40;93.70;;;;;;5073380;28;20451;-89
2022/04/05 07:09:58;;;;;;;19.05;12.07;;;7.40;93.70;;;;;;5073821;28;20103;-88
2022/04/05 07:12:23;;;;;;;16.05;10.73;;;7.30;93.90;;;;;;5073403;28;20028;-89
2022/04/05 07:14:51;;;;;;;14.68;11.13;;;7.40;94.20;;;;;;5073507;28;20066;-88
2022/04/05 07:17:17;;;;;;;14.35;10.93;;;7.50;94.30;;;;;;5073857;28;20475;-88
2022/04/05 07:19:44;;;;;;;13.27;11.10;;;7.70;94.00;;;;;;5074875;28;20040;-88
2022/04/05 07:22:09;;;;;;;15.43;11.00;;;7.90;93.40;;;;;;5073443;28;20535;-88
2022/04/05 07:24:35;;;;;;;16.08;10.82;;;7.90;93.20;;;;;;5073304;28;20063;-88
2022/04/05 07:27:00;;;;;;;14.68;11.10;;;7.90;93.10;;;;;;5073533;28;20033;-88
2022/04/05 07:29:29;;;;;;;17.23;11.93;;;7.90;93.20;;;;;;5073333;28;20024;-88
2022/04/05 07:31:56;;;;;;;17.45;11.90;;;7.80;92.80;;;;;;5073444;28;20387;-88
2022/04/05 07:34:24;;;;;;;16.27;12.20;;;7.70;92.90;;;;;;5073285;28;20020;-88
2022/04/05 07:36:49;;;;;;;16.40;12.20;;;7.60;93.00;;;;;;5073281;28;20042;-89
2022/04/05 07:39:15;;;;;;;18.85;12.55;;;7.50;93.10;;;;;;5074291;28;20052;-86
2022/04/05 07:41:41;;;;;;;15.38;11.55;;;7.50;93.10;;;;;;5073282;28;20478;-88
2022/04/05 07:44:07;;;;;;;15.88;12.30;;;7.50;93.50;;;;;;5073387;28;20028;-88
2022/04/05 07:46:35;;;;;;;18.23;12.27;;;7.50;93.90;;;;;;5073018;28;20048;-88
2022/04/05 07:49:00;;;;;;;18.52;12.85;;;7.60;93.10;;;;;;5074490;28;20020;-88
2022/04/05 07:51:27;;;;;;;17.83;12.45;;;7.70;92.40;;;;;;5074303;28;20390;-88
2022/04/05 07:53:53;;;;;;;14.70;11.55;;;7.70;91.50;;;;;;5074066;28;20429;-88
2022/04/05 07:56:18;;;;;;;18.05;12.15;;;7.60;91.90;;;;;;5073131;28;20032;-88
2022/04/05 07:58:45;;;;;;;16.98;12.07;;;7.60;91.70;;;;;;5073469;28;20021;-88
2022/04/05 08:01:11;;;;;;;15.52;11.68;;;7.60;92.40;;;;;;5074177;28;20020;-88
2022/04/05 08:03:37;;;;;;;19.70;14.57;;;7.80;92.30;;;;;;5073162;28;20023;-88
2022/04/05 08:06:03;;;;;;;15.48;11.30;;;8.00;91.80;;;;;;5073043;28;20025;-87
2022/04/05 08:08:29;;;;;;;18.00;12.05;;;8.30;90.00;;;;;;5073116;28;20127;-89
2022/04/05 08:10:55;;;;;;;13.32;11.05;;;8.40;88.00;;;;;;5074108;28;20027;-88
2022/04/05 08:13:21;;;;;;;15.43;11.73;;;8.50;86.20;;;;;;5074188;28;20564;-90
2022/04/05 08:15:46;;;;;;;13.23;10.52;;;8.50;85.10;;;;;;5072884;28;20021;-87
2022/04/05 08:18:12;;;;;;;13.90;10.48;;;8.60;84.10;;;;;;5072875;28;20024;-87
2022/04/05 08:20:41;;;;;;;14.50;10.43;;;8.60;82.30;;;;;;5072833;28;20024;-88
2022/04/05 08:23:10;;;;;;;14.02;10.05;;;8.60;83.80;;;;;;5072923;28;20021;-87
2022/04/05 08:25:36;;;;;;;13.00;9.65;;;8.80;80.20;;;;;;5072852;28;20029;-88
2022/04/05 08:28:03;;;;;;;13.00;9.45;;;8.80;80.20;;;;;;5072943;28;20025;-89
2022/04/05 08:30:29;;;;;;;13.48;9.48;;;8.90;78.20;;;;;;5072966;28;20108;-89
2022/04/05 08:32:54;;;;;;;15.70;11.13;;;8.80;79.20;;;;;;5072758;28;20486;-88
2022/04/05 08:35:22;;;;;;;12.90;8.18;;;8.80;75.40;;;;;;5072753;28;20024;-87
2022/04/05 08:37:50;;;;;;;11.65;8.07;;;8.70;74.10;;;;;;5072555;28;20017;-89
2022/04/05 08:40:18;;;;;;;10.10;8.10;;;8.70;70.90;;;;;;5072660;28;20021;-88
2022/04/05 08:42:50;;;;;;;12.13;8.27;;;8.70;70.20;;;;;;5073629;28;20027;-89
2022/04/05 08:45:18;;;;;;;11.23;7.47;;;8.70;70.60;;;;;;5072401;28;20031;-90
2022/04/05 08:47:48;;;;;;;11.70;8.10;;;8.70;67.60;;;;;;5072552;28;20021;-88
2022/04/05 08:50:22;;;;;;;9.40;6.80;;;8.70;66.80;;;;;;5073824;28;20028;-90
2022/04/05 08:52:49;;;;;;;11.65;7.88;;;8.70;67.70;;;;;;5072597;28;20441;-88
2022/04/05 08:55:16;;;;;;;10.23;8.05;;;8.70;67.10;;;;;;5073392;28;20049;-89
2022/04/05 08:57:43;;;;;;;9.77;7.95;;;8.60;67.20;;;;;;5072532;28;20478;-87
2022/04/05 09:00:11;;;;;;;11.00;8.05;;;8.70;65.30;;;;;;5072350;28;20036;-87
2022/04/05 09:02:36;;;;;;;10.07;7.90;;;8.70;65.00;;;;;;5074667;28;20024;-88
2022/04/05 09:05:03;;;;;;;12.90;8.63;;;8.60;64.80;;;;;;5077185;28;20039;-88
2022/04/05 09:07:31;;;;;;;10.98;7.95;;;8.50;66.80;;;;;;5075882;28;20035;-88
2022/04/05 09:10:23;;;;;;;16.02;9.00;;;8.60;66.10;;;;;;5077069;28;20497;-88
2022/04/05 09:12:50;;;;;;;10.27;8.00;;;8.60;66.50;;;;;;5074807;28;20131;-88
2022/04/05 09:15:16;;;;;;;9.63;7.88;;;8.60;65.10;;;;;;5075772;28;20425;-87
2022/04/05 09:17:43;;;;;;;9.68;7.63;;;8.70;65.50;;;;;;5076066;28;20073;-87
2022/04/05 09:20:10;;;;;;;10.63;7.70;;;8.80;64.70;;;;;;5075780;28;20459;-88
2022/04/05 09:22:36;;;;;;;10.77;8.02;;;8.90;65.00;;;;;;5075703;28;20032;-87
2022/04/05 09:25:07;;;;;;;9.95;7.78;;;9.00;65.30;;;;;;5075508;28;20424;-89
2022/04/05 09:27:54;;;;;;;10.90;7.57;;;9.00;64.70;;;;;;5075667;28;20024;-87
2022/04/05 09:30:24;;;;;;;10.43;7.80;;;9.10;63.70;;;;;;5075658;28;20437;-88
2022/04/05 09:32:51;;;;;;;8.00;6.78;;;9.30;61.40;;;;;;5075743;28;20024;-88
2022/04/05 09:35:20;;;;;;;8.95;7.38;;;9.30;62.40;;;;;;5075499;28;20383;-89
2022/04/05 09:37:46;;;;;;;11.30;7.38;;;9.30;62.40;;;;;;5075170;28;20114;-88
2022/04/05 09:40:19;;;;;;;9.90;7.95;;;9.40;61.50;;;;;;5074915;28;20493;-88
2022/04/05 09:43:09;;;;;;;12.38;8.18;;;9.40;61.10;;;;;;5075453;28;20363;-88
2022/04/05 09:45:53;;;;;;;11.85;7.22;;;9.30;62.70;;;;;;5076746;28;20032;-89
2022/04/05 09:48:22;;;;;;;9.68;7.35;;;9.40;63.60;;;;;;5075554;28;20025;-88
2022/04/05 09:51:00;;;;;;;10.48;6.95;;;9.60;63.60;;;;;;5075324;28;20024;-88
2022/04/05 09:53:55;;;;;;;9.15;7.20;;;9.80;62.30;;;;;;5076449;28;20024;-87
2022/04/05 09:56:50;;;;;;;9.27;7.38;;;10.20;60.90;;;;;;5074879;28;20072;-88
2022/04/05 09:59:18;;;;;;;11.85;8.32;;;10.60;60.10;;;;;;5071416;28;20453;-89
2022/04/05 10:01:49;;;;;;;9.85;6.68;;;10.90;59.80;;;;;;5076158;28;20383;-88
2022/04/05 10:04:17;;;;;;;10.32;7.65;;;11.10;59.60;;;;;;5074969;28;20040;-87
2022/04/05 10:06:46;;;;;;;9.48;7.25;;;11.10;56.70;;;;;;5091690;28;20057;-88
2022/04/05 10:09:19;;;;;;;9.23;6.60;;;11.10;55.20;;;;;;5074808;28;20471;-89
2022/04/05 10:11:45;;;;;;;11.90;8.88;;;10.90;56.70;;;;;;5076247;28;20482;-90
2022/04/05 10:14:13;;;;;;;9.52;7.32;;;10.80;58.40;;;;;;5074972;28;20056;-89
2022/04/05 10:16:39;;;;;;;10.80;8.07;;;11.00;57.90;;;;;;5074475;28;20467;-88
2022/04/05 10:19:10;;;;;;;11.90;7.30;;;11.30;54.60;;;;;;5076098;28;20029;-88
2022/04/05 10:21:37;;;;;;;10.02;7.47;;;11.20;54.20;;;;;;5074464;28;20027;-87
2022/04/05 10:24:04;;;;;;;10.27;6.50;;;11.10;55.10;;;;;;5074575;28;20021;-87
2022/04/05 10:26:33;;;;;;;10.60;7.63;;;11.10;56.60;;;;;;5074494;28;20021;-88
2022/04/05 10:29:03;;;;;;;11.55;7.50;;;11.20;56.20;;;;;;5057821;28;20101;-89
2022/04/05 10:32:06;;;;;;;10.10;6.68;;;11.40;56.60;;;;;;5075545;28;20103;-89
2022/04/05 10:34:42;;;;;;;7.82;6.68;;;11.70;56.60;;;;;;5074304;28;20032;-88
2022/04/05 10:37:17;;;;;;;10.23;7.53;;;12.00;54.60;;;;;;5091239;28;20070;-90
2022/04/05 10:40:04;;;;;;;10.30;7.68;;;11.90;55.20;;;;;;5075397;28;20099;-88
2022/04/05 10:42:35;;;;;;;11.98;7.70;;;12.00;54.70;;;;;;5074127;28;20425;-89
2022/04/05 10:45:17;;;;;;;8.25;6.07;;;11.90;55.50;;;;;;5075302;28;20099;-89
2022/04/05 10:48:12;;;;;;;13.80;7.28;;;11.90;54.70;;;;;;5073855;28;20028;-88
2022/04/05 10:50:38;;;;;;;9.77;6.93;;;11.90;53.20;;;;;;5073854;28;20082;-90
2022/04/05 10:53:21;;;;;;;8.57;6.50;;;11.70;53.70;;;;;;5074056;28;20040;-88
2022/04/05 10:56:07;;;;;;;7.97;6.60;;;11.60;54.00;;;;;;5073525;28;20053;-89
2022/04/05 10:58:38;;;;;;;9.65;6.30;;;11.60;53.80;;;;;;5073815;28;20041;-86
2022/04/05 11:01:18;;;;;;;8.95;6.78;;;11.60;53.90;;;;;;5073722;28;20055;-90
2022/04/05 11:04:09;;;;;;;10.30;7.20;;;11.60;53.90;;;;;;5074785;28;20082;-88
2022/04/05 11:07:06;;;;;;;8.88;7.05;;;11.60;53.60;;;;;;5073556;28;20028;-89
2022/04/05 11:09:39;;;;;;;7.78;6.55;;;11.60;54.80;;;;;;5073862;28;20360;-88
2022/04/05 11:12:16;;;;;;;8.43;6.38;;;11.70;54.90;;;;;;5073842;28;20044;-90
2022/04/05 11:14:45;;;;;;;7.70;6.15;;;11.90;54.90;;;;;;5073626;28;20115;-87
2022/04/05 11:17:15;;;;;;;8.38;6.50;;;12.00;53.60;;;;;;5090452;28;20078;-88
2022/04/05 11:19:43;;;;;;;8.80;6.22;;;12.10;54.40;;;;;;5073825;28;20494;-88
2022/04/05 11:22:20;;;;;;;8.30;5.70;;;12.20;53.00;;;;;;5073341;28;20107;-89
2022/04/05 11:25:07;;;;;;;10.90;6.65;;;12.30;53.30;;;;;;5072973;28;20032;-88
2022/04/05 11:27:48;;;;;;;10.85;6.47;;;12.50;52.10;;;;;;5073395;28;20035;-88
2022/04/05 11:30:26;;;;;;;9.02;6.45;;;12.30;52.70;;;;;;5074512;28;20090;-89
2022/04/05 11:33:14;;;;;;;7.13;5.72;;;12.30;52.90;;;;;;5073252;28;20115;-88
2022/04/05 11:35:43;;;;;;;8.93;6.28;;;12.30;52.60;;;;;;5073751;28;20025;-89
2022/04/05 11:38:17;;;;;;;8.32;6.25;;;12.30;52.70;;;;;;5075454;28;20059;-89
2022/04/05 11:40:51;;;;;;;6.90;5.80;;;12.20;52.70;;;;;;5073899;28;20025;-88
2022/04/05 11:43:30;;;;;;;9.95;5.80;;;12.10;54.30;;;;;;5073680;28;20042;-89
2022/04/05 11:46:01;;;;;;;7.95;6.20;;;12.10;54.90;;;;;;5073249;28;20028;-90
2022/04/05 11:48:28;;;;;;;7.95;6.05;;;12.20;54.10;;;;;;5073351;28;20111;-90
2022/04/05 11:50:57;;;;;;;9.30;6.40;;;12.20;53.90;;;;;;5073074;28;20027;-88
2022/04/05 11:53:25;;;;;;;7.38;5.93;;;12.20;53.20;;;;;;5074266;28;20028;-88
2022/04/05 11:56:09;;;;;;;8.13;5.70;;;12.10;54.00;;;;;;5072815;28;20045;-88
2022/04/05 11:58:36;;;;;;;9.70;6.35;;;12.40;52.80;;;;;;5073028;28;20074;-87
2022/04/05 12:01:03;;;;;;;8.15;6.22;;;12.60;52.00;;;;;;5072939;28;20107;-87
2022/04/05 12:03:50;;;;;;;8.88;6.55;;;12.60;51.90;;;;;;5073086;28;20025;-88
2022/04/05 12:06:23;;;;;;;6.95;6.25;;;12.40;52.30;;;;;;5074082;28;20028;-87
2022/04/05 12:08:51;;;;;;;7.55;5.68;;;12.10;52.40;;;;;;5073308;28;20119;-86
2022/04/05 12:11:19;;;;;;;6.65;5.72;;;11.90;53.30;;;;;;5072793;28;20021;-88
2022/04/05 12:14:13;;;;;;;7.50;6.18;;;11.80;53.70;;;;;;5072922;28;20025;-88
2022/04/05 12:16:58;;;;;;;10.32;6.40;;;12.00;53.20;;;;;;5071063;28;20036;-88
2022/04/05 12:19:39;;;;;;;7.85;5.53;;;11.90;53.70;;;;;;5072980;28;20111;-88
2022/04/05 12:22:09;;;;;;;8.00;5.25;;;11.90;54.20;;;;;;5089771;28;20032;-89
2022/04/05 12:24:53;;;;;;;8.65;5.55;;;12.10;53.80;;;;;;5072917;28;20025;-89
2022/04/05 12:27:24;;;;;;;8.23;5.82;;;12.20;54.20;;;;;;5072828;28;20060;-88
2022/04/05 12:29:56;;;;;;;7.10;5.78;;;12.20;53.80;;;;;;5074163;28;20020;-88
2022/04/05 12:32:22;;;;;;;6.60;5.47;;;12.40;53.80;;;;;;5072751;28;20417;-88
2022/04/05 12:34:48;;;;;;;9.13;7.07;;;12.40;52.80;;;;;;5072789;28;20029;-87
2022/04/05 12:37:14;;;;;;;11.15;6.20;;;12.40;52.90;;;;;;5073444;28;20044;-87
2022/04/05 12:39:50;;;;;;;7.00;5.72;;;12.30;53.30;;;;;;5076618;28;20497;-87
2022/04/05 12:42:17;;;;;;;6.82;5.68;;;12.20;54.20;;;;;;5076682;28;20113;-89
2022/04/05 12:44:48;;;;;;;10.57;5.65;;;12.10;53.00;;;;;;5076346;28;20048;-89
2022/04/05 12:47:16;;;;;;;7.47;5.90;;;12.00;53.60;;;;;;5076321;28;20478;-88